Time;durP1;ratioP1;P1;durP2;ratioP2;P2;SDS_P1;SDS_P2;PMS_P1;PMS_P2;Temp;Humidity;BMP_temperature;BMP_pressure;BME280_temperature;BME280_humidity;BME280_pressure;Samples;Min_cycle;Max_cycle;Signal;HPM_P1;HPM_P2
2022/04/27 00:00:50;;;;;;;1.90;1.50;;;;;;;10.66;100.00;90847.16;5031804;28;20414;-65
2022/04/27 00:03:16;;;;;;;1.33;1.25;;;;;;;10.81;100.00;90846.69;5031772;28;20491;-65
2022/04/27 00:05:42;;;;;;;1.35;1.25;;;;;;;10.76;100.00;90837.00;5031770;28;20088;-65
2022/04/27 00:08:07;;;;;;;1.70;1.60;;;;;;;10.87;100.00;90852.66;5031316;28;20033;-65
2022/04/27 00:10:33;;;;;;;1.65;1.55;;;;;;;10.79;100.00;90833.72;5031525;28;20050;-65
2022/04/27 00:12:58;;;;;;;1.02;1.02;;;;;;;10.90;100.00;90844.06;5031539;28;20061;-65
2022/04/27 00:15:26;;;;;;;4.50;1.75;;;;;;;10.95;100.00;90828.72;5031642;28;20049;-65
2022/04/27 00:17:52;;;;;;;1.27;1.27;;;;;;;10.74;100.00;90838.41;5031820;28;20064;-64
2022/04/27 00:20:17;;;;;;;1.42;1.33;;;;;;;10.61;100.00;90828.69;5031614;28;20491;-65
2022/04/27 00:22:43;;;;;;;1.67;1.52;;;;;;;10.48;100.00;90835.69;5031497;28;20038;-65
2022/04/27 00:25:08;;;;;;;1.13;1.13;;;;;;;10.34;100.00;90829.72;5031493;28;20045;-65
2022/04/27 00:27:34;;;;;;;1.02;1.02;;;;;;;10.28;100.00;90825.63;5031532;28;20044;-65
2022/04/27 00:30:00;;;;;;;1.45;1.35;;;;;;;10.23;100.00;90833.72;5031372;28;20049;-65
2022/04/27 00:32:26;;;;;;;1.95;1.20;;;;;;;10.15;100.00;90820.09;5031327;28;20123;-65
2022/04/27 00:34:52;;;;;;;1.17;1.17;;;;;;;10.14;100.00;90831.81;5031281;28;20080;-65
2022/04/27 00:37:20;;;;;;;1.35;1.27;;;;;;;10.05;100.00;90830.97;5031252;28;20048;-65
2022/04/27 00:39:46;;;;;;;1.23;1.23;;;;;;;9.93;100.00;90822.03;5031240;28;20034;-65
2022/04/27 00:42:19;;;;;;;1.30;1.20;;;;;;;9.78;100.00;90823.19;5031104;28;20103;-64
2022/04/27 00:44:46;;;;;;;1.50;1.40;;;;;;;9.78;100.00;90823.19;5031204;28;20096;-64
2022/04/27 00:47:12;;;;;;;1.95;1.45;;;;;;;9.79;100.00;90824.81;5031148;28;20034;-65
2022/04/27 00:49:41;;;;;;;1.60;1.50;;;;;;;9.71;100.00;90821.00;5031195;28;20065;-65
2022/04/27 00:52:12;;;;;;;1.40;1.30;;;;;;;9.72;100.00;90822.56;5031082;28;20041;-64
2022/04/27 00:54:38;;;;;;;1.38;1.27;;;;;;;9.63;100.00;90819.09;5031033;28;20045;-64
2022/04/27 00:57:04;;;;;;;1.35;1.17;;;;;;;9.62;100.00;90825.47;5031094;28;20052;-65
2022/04/27 00:59:29;;;;;;;1.08;1.08;;;;;;;9.56;100.00;90826.69;5013197;28;20042;-64
2022/04/27 01:01:55;;;;;;;0.90;0.90;;;;;;;9.54;100.00;90827.00;5031199;28;20471;-65
2022/04/27 01:04:20;;;;;;;1.33;1.23;;;;;;;9.40;100.00;90828.16;5030975;28;20042;-64
2022/04/27 01:06:46;;;;;;;1.48;1.38;;;;;;;9.26;100.00;90826.38;5031011;28;20084;-64
2022/04/27 01:09:12;;;;;;;1.30;1.20;;;;;;;9.08;100.00;90821.25;5030716;28;20167;-64
2022/04/27 01:11:38;;;;;;;1.20;1.20;;;;;;;8.79;100.00;90824.28;5030842;28;20045;-65
2022/04/27 01:14:04;;;;;;;1.52;1.42;;;;;;;8.55;100.00;90828.00;5030848;28;20415;-65
2022/04/27 01:16:30;;;;;;;2.75;1.88;;;;;;;8.45;100.00;90814.16;5030935;28;20116;-64
2022/04/27 01:18:55;;;;;;;1.25;1.25;;;;;;;8.38;100.00;90819.88;5031834;28;20037;-65
2022/04/27 01:21:22;;;;;;;1.15;1.15;;;;;;;8.24;100.00;90808.50;5034782;28;20041;-65
2022/04/27 01:23:47;;;;;;;1.48;1.38;;;;;;;8.20;100.00;90813.59;5035049;28;20096;-65
2022/04/27 01:26:13;;;;;;;1.42;1.33;;;;;;;8.18;100.00;90814.97;5034778;28;20045;-65
2022/04/27 01:28:38;;;;;;;1.75;1.65;;;;;;;8.04;100.00;90809.66;5034602;28;20037;-65
2022/04/27 01:31:10;;;;;;;1.13;1.10;;;;;;;8.02;100.00;90817.91;5034741;28;20427;-65
2022/04/27 01:33:36;;;;;;;1.20;1.10;;;;;;;7.94;100.00;90807.25;5035580;28;20499;-65
2022/04/27 01:36:06;;;;;;;1.40;1.40;;;;;;;7.88;100.00;90803.88;5042964;28;20095;-65
2022/04/27 01:38:39;;;;;;;1.48;1.38;;;;;;;7.89;100.00;90804.66;5037591;28;20037;-65
2022/04/27 01:41:05;;;;;;;2.13;1.73;;;;;;;7.78;100.00;90810.19;5034564;28;20067;-65
2022/04/27 01:43:33;;;;;;;0.90;0.90;;;;;;;7.51;100.00;90807.50;5036120;28;20654;-65
2022/04/27 01:45:58;;;;;;;1.08;1.08;;;;;;;7.30;100.00;90809.75;5034440;28;20060;-65
2022/04/27 01:48:26;;;;;;;1.60;1.50;;;;;;;7.14;100.00;90808.44;5034378;28;20037;-64
2022/04/27 01:50:51;;;;;;;1.30;1.20;;;;;;;7.01;100.00;90811.81;5034562;28;20195;-65
2022/04/27 01:56:01;;;;;;;1.15;1.10;;;;;;;6.85;100.00;90816.56;5034505;28;20526;-65
2022/04/27 01:58:27;;;;;;;1.00;1.00;;;;;;;6.85;100.00;90817.34;5034186;28;20065;-65
2022/04/27 02:00:53;;;;;;;1.20;1.10;;;;;;;6.92;100.00;90811.69;5050005;28;20384;-65
2022/04/27 02:03:19;;;;;;;1.48;1.38;;;;;;;7.07;100.00;90813.28;5052547;28;20106;-65
2022/04/27 02:05:45;;;;;;;1.30;1.30;;;;;;;7.22;100.00;90816.47;5052680;28;20183;-65
2022/04/27 02:08:11;;;;;;;1.50;1.23;;;;;;;7.28;100.00;90824.34;5034572;28;20498;-65
2022/04/27 02:10:37;;;;;;;1.58;1.48;;;;;;;7.39;100.00;90821.19;5052276;28;20053;-65
2022/04/27 02:13:05;;;;;;;1.20;1.20;;;;;;;7.45;100.00;90814.75;5052457;28;20025;-64
2022/04/27 02:15:32;;;;;;;1.10;1.10;;;;;;;7.53;100.00;90815.94;5052298;28;20037;-65
2022/04/27 02:17:58;;;;;;;1.52;1.15;;;;;;;7.41;100.00;90815.63;5052437;28;20033;-65
2022/04/27 02:20:23;;;;;;;1.30;1.10;;;;;;;7.41;100.00;90821.69;5052410;28;20478;-65
2022/04/27 02:22:50;;;;;;;1.00;1.00;;;;;;;7.35;100.00;90814.94;5052023;28;20059;-66
2022/04/27 02:25:16;;;;;;;1.20;0.93;;;;;;;7.12;100.00;90816.66;5052317;28;20033;-65
2022/04/27 02:27:42;;;;;;;1.00;1.00;;;;;;;6.94;100.00;90819.31;5052239;28;20029;-64
2022/04/27 02:30:09;;;;;;;1.38;1.30;;;;;;;6.76;100.00;90827.00;5051573;28;20043;-65
2022/04/27 02:32:34;;;;;;;2.30;1.83;;;;;;;6.71;100.00;90819.13;5049251;28;20550;-66
2022/04/27 02:35:00;;;;;;;1.20;1.05;;;;;;;6.69;100.00;90812.56;5051892;28;20041;-65
2022/04/27 02:37:26;;;;;;;1.33;1.27;;;;;;;6.74;100.00;90820.41;5052309;28;20059;-66
2022/04/27 02:39:51;;;;;;;1.00;1.00;;;;;;;6.79;100.00;90823.00;5051930;28;20402;-66
2022/04/27 02:42:17;;;;;;;1.38;1.30;;;;;;;6.82;100.00;90812.63;5051741;28;20036;-66
2022/04/27 02:44:43;;;;;;;1.15;1.15;;;;;;;6.82;100.00;90811.84;5052168;28;20036;-65
2022/04/27 02:47:09;;;;;;;1.20;1.10;;;;;;;6.76;100.00;90813.75;5051703;28;20556;-66
2022/04/27 02:52:18;;;;;;;1.50;1.40;;;;;;;6.73;100.00;90821.50;5049591;28;20124;-66
2022/04/27 02:54:44;;;;;;;1.20;1.20;;;;;;;6.68;100.00;90817.06;5051608;28;20533;-66
2022/04/27 02:57:09;;;;;;;1.40;1.30;;;;;;;6.63;100.00;90803.13;5051585;28;20037;-66
2022/04/27 02:59:35;;;;;;;1.92;1.00;;;;;;;6.70;100.00;90811.50;5051755;28;20037;-66
2022/04/27 03:02:00;;;;;;;0.98;0.98;;;;;;;6.68;100.00;90801.22;5051585;28;20025;-65
2022/04/27 03:04:26;;;;;;;1.77;1.67;;;;;;;6.76;100.00;90819.06;5033673;28;20032;-65
2022/04/27 03:06:51;;;;;;;2.13;1.60;;;;;;;6.75;100.00;90803.47;5051427;28;20029;-65
2022/04/27 03:09:17;;;;;;;1.05;1.05;;;;;;;6.86;100.00;90813.63;5051141;28;20426;-65
2022/04/27 03:11:42;;;;;;;1.00;1.00;;;;;;;6.89;100.00;90815.69;5051270;28;20063;-65
2022/04/27 03:14:08;;;;;;;1.20;1.20;;;;;;;6.87;100.00;90815.19;5051127;28;20033;-65
2022/04/27 03:16:33;;;;;;;1.70;1.45;;;;;;;6.89;100.00;90825.47;5051230;28;20033;-66
2022/04/27 03:18:59;;;;;;;1.73;1.63;;;;;;;6.86;100.00;90818.13;5051027;28;20025;-65
2022/04/27 03:21:25;;;;;;;1.10;1.10;;;;;;;6.88;100.00;90822.03;5051076;28;20033;-66
2022/04/27 03:23:50;;;;;;;0.93;0.93;;;;;;;6.85;100.00;90830.56;5051111;28;20102;-66
2022/04/27 03:26:15;;;;;;;1.10;1.10;;;;;;;6.87;100.00;90822.34;5051013;28;20473;-65
2022/04/27 03:28:41;;;;;;;1.55;1.45;;;;;;;6.90;100.00;90825.19;5051132;28;20509;-65
2022/04/27 03:31:06;;;;;;;1.13;1.13;;;;;;;6.88;100.00;90832.63;5050746;28;20074;-66
2022/04/27 03:33:32;;;;;;;2.63;1.58;;;;;;;6.77;100.00;90825.91;5050851;28;20029;-66
2022/04/27 03:35:57;;;;;;;1.15;1.15;;;;;;;6.87;100.00;90831.06;5052291;28;20045;-65
2022/04/27 03:38:23;;;;;;;1.10;1.10;;;;;;;6.72;100.00;90822.56;5052255;28;20514;-66
2022/04/27 03:40:48;;;;;;;1.10;1.10;;;;;;;6.73;100.00;90838.13;5034384;28;20049;-66
2022/04/27 03:43:15;;;;;;;1.55;1.45;;;;;;;6.70;100.00;90833.44;5051066;28;20095;-65
2022/04/27 03:45:41;;;;;;;1.27;1.20;;;;;;;6.80;100.00;90840.44;5052140;28;20430;-65
2022/04/27 03:48:07;;;;;;;1.20;1.10;;;;;;;6.74;100.00;90837.06;5052136;28;20048;-66
2022/04/27 03:50:33;;;;;;;1.00;1.00;;;;;;;6.80;100.00;90835.94;5052178;28;20036;-65
2022/04/27 03:52:59;;;;;;;1.25;1.15;;;;;;;6.95;100.00;90834.91;5051959;28;20045;-65
2022/04/27 03:55:28;;;;;;;1.33;1.25;;;;;;;7.05;100.00;90844.53;5052077;28;20050;-65
2022/04/27 03:57:54;;;;;;;1.50;1.40;;;;;;;6.97;100.00;90846.00;5059490;28;20116;-66
2022/04/27 04:00:20;;;;;;;1.60;1.50;;;;;;;6.90;100.00;90846.34;5051394;28;20065;-66
2022/04/27 04:02:46;;;;;;;1.15;1.15;;;;;;;6.75;100.00;90843.13;5052030;28;20067;-65
2022/04/27 04:05:11;;;;;;;1.00;1.00;;;;;;;6.71;100.00;90852.72;5049614;28;20033;-66
2022/04/27 04:07:37;;;;;;;1.08;1.08;;;;;;;6.73;100.00;90847.94;5031822;28;20033;-67
2022/04/27 04:10:03;;;;;;;1.20;1.20;;;;;;;6.85;100.00;90850.94;5031625;28;20097;-66
2022/04/27 04:12:28;;;;;;;1.52;1.42;;;;;;;6.91;100.00;90850.56;5031619;28;20093;-66
2022/04/27 04:14:54;;;;;;;1.10;1.10;;;;;;;7.04;100.00;90851.69;5031355;28;20483;-66
2022/04/27 04:17:19;;;;;;;14.77;1.83;;;;;;;7.09;100.00;90848.94;5031539;28;20025;-67
2022/04/27 04:19:45;;;;;;;3.70;1.23;;;;;;;7.23;100.00;90854.28;5031623;28;20033;-67
2022/04/27 04:22:10;;;;;;;1.42;1.33;;;;;;;7.33;100.00;90861.28;5031731;28;20030;-67
2022/04/27 04:24:36;;;;;;;1.23;1.23;;;;;;;7.58;100.00;90860.09;5031600;28;20033;-67
2022/04/27 04:29:47;;;;;;;1.20;1.20;;;;;;;8.10;100.00;90862.28;5031843;28;20047;-66
2022/04/27 04:32:12;;;;;;;1.40;1.30;;;;;;;8.33;100.00;90859.69;5031466;28;20108;-68
2022/04/27 04:34:37;;;;;;;1.40;1.30;;;;;;;8.70;100.00;90867.44;5031424;28;20029;-67
2022/04/27 04:37:03;;;;;;;1.30;1.30;;;;;;;9.06;100.00;90866.66;5031477;28;20443;-66
2022/04/27 04:39:29;;;;;;;1.63;1.52;;;;;;;9.50;100.00;90879.16;5031364;28;20410;-66
2022/04/27 04:41:54;;;;;;;1.00;1.00;;;;;;;10.16;100.00;90868.72;5031266;28;20503;-66
2022/04/27 04:44:20;;;;;;;1.80;1.70;;;;;;;10.73;100.00;90877.53;5031269;28;20041;-66
2022/04/27 04:46:45;;;;;;;1.58;1.48;;;;;;;10.58;100.00;90877.19;5031095;28;20032;-66
2022/04/27 04:49:11;;;;;;;1.40;1.30;;;;;;;10.78;100.00;90882.69;5031127;28;20029;-66
2022/04/27 04:51:37;;;;;;;1.27;1.27;;;;;;;11.05;100.00;90886.19;5030968;28;20121;-66
2022/04/27 04:54:03;;;;;;;1.30;1.20;;;;;;;11.44;100.00;90874.59;5030824;28;20037;-66
2022/04/27 04:56:28;;;;;;;2.10;1.90;;;;;;;11.72;100.00;90887.59;5031245;28;20021;-66
2022/04/27 04:58:54;;;;;;;1.85;1.75;;;;;;;12.17;100.00;90888.78;5031196;28;20108;-66
2022/04/27 05:01:20;;;;;;;1.50;1.40;;;;;;;12.05;100.00;90885.97;5031243;28;20033;-66
2022/04/27 05:03:45;;;;;;;1.40;1.30;;;;;;;12.46;100.00;90892.56;5031082;28;20029;-66
2022/04/27 05:06:11;;;;;;;1.05;1.02;;;;;;;12.37;100.00;90891.84;5031035;28;20030;-64
2022/04/27 05:08:36;;;;;;;1.80;1.70;;;;;;;12.51;100.00;90892.41;5031040;28;20088;-66
2022/04/27 05:11:01;;;;;;;1.83;1.73;;;;;;;12.55;100.00;90890.66;5031982;28;20046;-66
2022/04/27 05:13:27;;;;;;;1.30;1.30;;;;;;;12.90;100.00;90892.03;5044572;28;20542;-69
2022/04/27 05:15:52;;;;;;;1.23;1.15;;;;;;;12.89;100.00;90890.47;5044994;28;20032;-67
2022/04/27 05:18:18;;;;;;;1.20;1.17;;;;;;;13.08;100.00;90889.28;5050481;28;20043;-67
2022/04/27 05:20:44;;;;;;;1.60;1.38;;;;;;;13.18;100.00;90891.59;5050203;28;20025;-69
2022/04/27 05:23:13;;;;;;;1.17;1.13;;;;;;;13.52;100.00;90893.22;5050781;28;20116;-68
2022/04/27 05:25:38;;;;;;;1.52;1.42;;;;;;;13.77;100.00;90894.13;5049931;28;20096;-68
2022/04/27 05:28:04;;;;;;;1.42;1.33;;;;;;;14.03;100.00;90897.34;5050088;28;20161;-69
2022/04/27 05:33:18;;;;;;;3.17;2.63;;;;;;;19.41;82.14;90892.75;5050512;28;20101;-67
2022/04/27 05:35:43;;;;;;;1.73;1.63;;;;;;;20.79;66.76;90897.56;5050048;28;20029;-68
2022/04/27 05:38:10;;;;;;;1.77;1.38;;;;;;;22.06;61.75;90897.03;5050465;28;20033;-69
2022/04/27 05:40:36;;;;;;;1.10;1.10;;;;;;;23.19;57.78;90906.72;5050466;28;20044;-67
2022/04/27 05:43:06;;;;;;;1.52;1.42;;;;;;;24.17;53.37;90907.09;5050233;28;20406;-66
2022/04/27 05:45:32;;;;;;;1.50;1.40;;;;;;;25.31;50.05;90907.38;5050597;28;20068;-66
2022/04/27 05:47:58;;;;;;;1.50;1.40;;;;;;;24.61;49.72;90895.66;5050332;28;20060;-70
2022/04/27 05:50:24;;;;;;;1.45;1.35;;;;;;;24.97;49.76;90895.50;5049931;28;20055;-67
2022/04/27 05:52:52;;;;;;;1.40;1.30;;;;;;;24.88;48.40;90915.00;5050050;28;20491;-66
2022/04/27 05:55:19;;;;;;;1.60;1.50;;;;;;;25.81;46.88;90911.69;5049890;28;20039;-67
2022/04/27 05:57:45;;;;;;;1.08;1.08;;;;;;;25.48;46.23;90913.09;5050307;28;20056;-67
2022/04/27 06:00:12;;;;;;;1.45;1.35;;;;;;;26.33;45.79;90914.31;5050439;28;20111;-67
2022/04/27 06:02:38;;;;;;;1.15;1.15;;;;;;;24.58;47.57;90904.63;5049924;28;20048;-69
2022/04/27 06:05:05;;;;;;;1.38;1.27;;;;;;;25.56;47.40;90906.41;5050128;28;20025;-67
2022/04/27 06:07:31;;;;;;;1.33;1.27;;;;;;;27.17;43.67;90897.38;5053293;28;20406;-69
2022/04/27 06:09:56;;;;;;;1.48;1.38;;;;;;;25.89;44.12;90892.16;5053761;28;20051;-69
2022/04/27 06:12:30;;;;;;;1.20;1.20;;;;;;;25.35;45.24;90891.78;5053535;28;20107;-69
2022/04/27 06:14:56;;;;;;;1.27;1.23;;;;;;;26.72;44.67;90901.03;5053876;28;20040;-70
2022/04/27 06:17:21;;;;;;;1.17;1.10;;;;;;;28.31;42.50;90902.63;5053642;28;20139;-69
2022/04/27 06:19:46;;;;;;;1.30;1.20;;;;;;;30.27;38.87;90905.88;5053665;28;20039;-67
2022/04/27 06:22:12;;;;;;;1.23;1.13;;;;;;;29.56;38.54;90910.31;5053095;28;20446;-68
2022/04/27 06:24:37;;;;;;;1.30;1.20;;;;;;;30.58;37.36;90907.00;5053454;28;20029;-69
2022/04/27 06:27:03;;;;;;;1.00;1.00;;;;;;;30.06;37.59;90907.94;5053397;28;20079;-68
2022/04/27 06:29:29;;;;;;;1.55;1.45;;;;;;;27.88;40.26;90909.97;5053455;28;20029;-69
2022/04/27 06:31:54;;;;;;;1.60;1.30;;;;;;;29.42;38.83;90916.84;5053074;28;20076;-69
2022/04/27 06:34:19;;;;;;;1.30;1.20;;;;;;;29.01;38.93;90912.63;5053267;28;20029;-69
2022/04/27 06:36:45;;;;;;;1.70;1.58;;;;;;;27.26;42.04;90906.59;5053877;28;20025;-68
2022/04/27 06:39:14;;;;;;;1.45;1.35;;;;;;;28.12;41.44;90908.78;5059235;28;20092;-68
2022/04/27 06:41:40;;;;;;;1.60;1.50;;;;;;;28.12;40.14;90916.22;5058996;28;20080;-68
2022/04/27 06:44:06;;;;;;;3.53;1.67;;;;;;;29.01;39.65;90912.63;5053616;28;20056;-67
2022/04/27 06:46:31;;;;;;;1.13;1.13;;;;;;;29.36;37.92;90921.31;5053137;28;20536;-68
2022/04/27 06:48:57;;;;;;;1.63;1.48;;;;;;;29.67;38.69;90897.13;5052918;28;20450;-67
2022/04/27 06:51:22;;;;;;;2.03;1.45;;;;;;;30.33;36.89;90906.91;5052717;28;20072;-66
2022/04/27 06:53:48;;;;;;;2.55;1.98;;;;;;;32.46;34.20;90900.63;5052907;28;20503;-64
2022/04/27 06:56:16;;;;;;;1.67;1.58;;;;;;;29.62;37.45;90908.59;5052867;28;21019;-66
2022/04/27 06:58:41;;;;;;;1.80;1.65;;;;;;;29.20;37.91;90911.84;5052939;28;20534;-66
2022/04/27 07:01:07;;;;;;;3.03;1.85;;;;;;;30.02;37.37;90910.00;5052815;28;20464;-66
2022/04/27 07:03:33;;;;;;;1.83;1.70;;;;;;;30.39;37.92;90905.94;5052674;28;20033;-66
2022/04/27 07:05:59;;;;;;;2.10;1.90;;;;;;;30.30;37.34;90918.75;5052160;28;20021;-66
2022/04/27 07:08:25;;;;;;;2.28;2.10;;;;;;;30.97;35.99;90905.97;5052700;28;20064;-69
2022/04/27 07:10:51;;;;;;;2.95;2.00;;;;;;;31.36;35.80;90908.81;5052256;28;20521;-67
2022/04/27 07:13:16;;;;;;;3.22;2.30;;;;;;;31.24;35.54;90913.06;5052648;28;20021;-64
2022/04/27 07:15:42;;;;;;;2.25;1.95;;;;;;;30.02;37.61;90909.22;5052453;28;20025;-65
2022/04/27 07:18:07;;;;;;;2.53;1.98;;;;;;;29.16;37.66;90913.09;5052189;28;20064;-65
2022/04/27 07:20:33;;;;;;;2.22;2.03;;;;;;;27.95;40.97;90909.88;5052365;28;20033;-65
2022/04/27 07:22:58;;;;;;;2.05;1.85;;;;;;;28.72;39.77;90911.63;5052381;28;20055;-66
2022/04/27 07:25:27;;;;;;;2.45;2.00;;;;;;;30.44;36.72;90907.38;5052378;28;20107;-66
2022/04/27 07:27:53;;;;;;;4.20;2.80;;;;;;;29.99;38.02;90907.34;5052372;28;20478;-67
2022/04/27 07:30:20;;;;;;;1.85;1.75;;;;;;;31.19;35.76;90908.13;5052271;28;20032;-66
2022/04/27 07:32:47;;;;;;;1.67;1.58;;;;;;;30.51;36.37;90904.47;5052114;28;20029;-67
2022/04/27 07:35:18;;;;;;;1.90;1.80;;;;;;;29.60;37.74;90909.03;5051676;28;20047;-66
2022/04/27 07:37:44;;;;;;;1.65;1.55;;;;;;;31.89;34.22;90904.47;5052173;28;20021;-67
2022/04/27 07:40:11;;;;;;;1.80;1.30;;;;;;;31.61;33.71;90908.84;5052149;28;20032;-66
2022/04/27 07:42:37;;;;;;;1.73;1.63;;;;;;;31.13;35.35;90907.88;5051836;28;20063;-67
2022/04/27 07:45:05;;;;;;;1.65;1.55;;;;;;;31.66;34.04;90902.03;5051959;28;20041;-66
2022/04/27 07:47:51;;;;;;;1.05;1.05;;;;;;;33.04;32.81;90896.69;5051710;28;20028;-66
2022/04/27 07:50:18;;;;;;;2.05;1.10;;;;;;;32.75;31.30;90916.97;5051199;28;20094;-66
2022/04/27 07:52:44;;;;;;;4.05;1.30;;;;;;;30.22;35.62;90901.69;5051539;28;20067;-67
2022/04/27 07:55:10;;;;;;;1.48;1.27;;;;;;;32.52;33.18;90908.34;5051792;28;20064;-67
2022/04/27 07:57:37;;;;;;;1.48;1.38;;;;;;;32.01;32.90;90905.66;5051861;28;20036;-67
2022/04/27 08:00:22;;;;;;;1.67;1.58;;;;;;;32.94;31.93;90908.84;5051673;28;20449;-68
2022/04/27 08:02:48;;;;;;;1.60;1.30;;;;;;;33.32;31.89;90914.19;5051546;28;20491;-67
2022/04/27 08:05:15;;;;;;;1.30;1.20;;;;;;;32.13;32.71;90900.13;5051541;28;20028;-67
2022/04/27 08:07:44;;;;;;;1.20;1.20;;;;;;;32.01;33.23;90897.41;5051592;28;20525;-67
2022/04/27 08:10:15;;;;;;;3.67;1.83;;;;;;;32.40;32.53;90905.19;5051318;28;20124;-66
2022/04/27 08:12:43;;;;;;;2.38;1.42;;;;;;;32.22;32.96;90901.47;5051387;28;20037;-66
2022/04/27 08:15:09;;;;;;;1.95;1.63;;;;;;;32.23;32.77;90906.50;5051649;28;20025;-69
2022/04/27 08:17:35;;;;;;;1.40;1.30;;;;;;;29.72;34.92;90891.13;5051452;28;20510;-68
2022/04/27 08:22:45;;;;;;;1.52;1.42;;;;;;;31.47;34.01;90890.03;5051470;28;20040;-68
2022/04/27 08:25:10;;;;;;;1.45;1.35;;;;;;;32.75;33.91;90902.41;5051362;28;20415;-68
2022/04/27 08:27:35;;;;;;;1.30;1.20;;;;;;;31.14;35.03;90898.44;5051198;28;20032;-68
2022/04/27 08:30:01;;;;;;;1.63;1.50;;;;;;;31.51;34.06;90896.19;5032791;28;20035;-68
2022/04/27 08:32:27;;;;;;;1.52;1.42;;;;;;;32.86;32.96;90889.06;5051084;28;20029;-71
2022/04/27 08:34:52;;;;;;;1.50;1.40;;;;;;;33.39;32.08;90893.88;5032564;28;20412;-65
2022/04/27 08:37:18;;;;;;;2.30;1.20;;;;;;;36.56;29.12;90892.00;5051131;28;20095;-65
2022/04/27 08:39:43;;;;;;;1.40;1.20;;;;;;;33.34;30.78;90889.72;5050980;28;20025;-65
2022/04/27 08:42:11;;;;;;;0.80;0.80;;;;;;;30.23;33.46;90883.25;5050866;28;20053;-65
2022/04/27 08:44:37;;;;;;;0.90;0.90;;;;;;;29.44;35.63;90878.81;5050728;28;20029;-64
2022/04/27 08:47:04;;;;;;;1.38;1.27;;;;;;;32.04;30.56;90889.03;5050822;28;20039;-64
2022/04/27 08:49:33;;;;;;;5.80;2.13;;;;;;;31.95;32.05;90880.69;5050326;28;20079;-66
2022/04/27 08:52:01;;;;;;;1.40;1.30;;;;;;;31.24;32.83;90878.16;5050982;28;20037;-66
2022/04/27 08:54:27;;;;;;;1.25;1.20;;;;;;;31.27;32.31;90884.75;5050850;28;20487;-67
2022/04/27 08:56:53;;;;;;;1.00;1.00;;;;;;;30.35;33.15;90880.56;5032946;28;20035;-65
2022/04/27 08:59:18;;;;;;;1.20;1.10;;;;;;;29.18;33.70;90886.03;5050639;28;20021;-66
2022/04/27 09:01:44;;;;;;;1.00;1.00;;;;;;;32.37;31.51;90875.78;5050629;28;20037;-67
2022/04/27 09:04:15;;;;;;;2.15;1.85;;;;;;;30.96;31.89;90878.94;5050249;28;20087;-66
2022/04/27 09:06:41;;;;;;;1.08;1.02;;;;;;;30.15;32.75;90876.41;5050704;28;20454;-66
2022/04/27 09:09:10;;;;;;;2.65;0.90;;;;;;;31.25;31.44;90876.16;5050545;28;20041;-65
2022/04/27 09:11:37;;;;;;;1.10;1.00;;;;;;;31.21;31.24;90872.72;5050416;28;20482;-66
2022/04/27 09:14:07;;;;;;;0.90;0.90;;;;;;;32.15;30.91;90875.69;5050562;28;20039;-67
2022/04/27 09:22:07;;;;;;;0.88;0.88;;;;;;;33.36;31.37;90873.47;5050652;28;20060;-66
2022/04/27 09:24:48;;;;;;;1.20;1.20;;;;;;;35.57;29.28;90867.06;5049769;28;20498;-67
2022/04/27 09:27:19;;;;;;;0.93;0.93;;;;;;;32.95;29.85;90869.81;5050654;28;20152;-67
2022/04/27 09:29:58;;;;;;;1.25;1.20;;;;;;;32.33;32.15;90872.34;5050545;28;20421;-64
2022/04/27 09:32:24;;;;;;;1.17;1.13;;;;;;;32.23;31.90;90856.97;5050230;28;20069;-65
2022/04/27 09:34:50;;;;;;;1.80;1.30;;;;;;;34.16;30.48;90854.16;5049598;28;20025;-66
2022/04/27 09:37:18;;;;;;;1.08;1.00;;;;;;;35.70;29.35;90859.31;5050256;28;20518;-65
2022/04/27 09:39:46;;;;;;;0.98;0.98;;;;;;;34.84;29.75;90856.84;5050922;28;20391;-67
2022/04/27 09:42:14;;;;;;;1.10;1.00;;;;;;;34.34;30.07;90855.41;5053824;28;20506;-65
2022/04/27 09:44:40;;;;;;;1.40;1.10;;;;;;;31.64;32.44;90850.22;5054266;28;20027;-65
2022/04/27 09:47:07;;;;;;;1.10;1.00;;;;;;;29.04;35.46;90859.75;5054163;28;20494;-64
2022/04/27 09:49:37;;;;;;;2.35;1.00;;;;;;;25.94;39.71;90850.06;5053776;28;20037;-65
2022/04/27 09:52:05;;;;;;;1.58;1.48;;;;;;;24.31;43.16;90851.94;5053916;28;20025;-65
2022/04/27 09:54:34;;;;;;;1.42;1.33;;;;;;;23.86;44.08;90849.69;5053868;28;20055;-65
2022/04/27 09:57:05;;;;;;;3.10;1.38;;;;;;;24.18;42.74;90857.75;5054166;28;20033;-67
2022/04/27 09:59:35;;;;;;;1.25;1.20;;;;;;;26.69;40.00;90849.25;5053837;28;20037;-67
2022/04/27 10:02:13;;;;;;;1.50;1.40;;;;;;;25.85;40.40;90842.34;5053867;28;20066;-66
2022/04/27 10:04:40;;;;;;;1.25;1.15;;;;;;;25.30;41.67;90848.66;5053753;28;20033;-66
2022/04/27 10:07:07;;;;;;;1.10;1.00;;;;;;;24.44;43.43;90850.28;5054915;28;20021;-68
2022/04/27 10:09:33;;;;;;;1.23;1.13;;;;;;;23.77;44.59;90851.25;5058831;28;20151;-68
2022/04/27 10:12:03;;;;;;;0.73;0.73;;;;;;;23.13;45.62;90848.56;5058054;28;20091;-67
2022/04/27 10:14:30;;;;;;;1.15;1.10;;;;;;;22.86;46.57;90859.00;5055828;28;20073;-66
2022/04/27 10:16:56;;;;;;;1.73;1.58;;;;;;;23.22;46.38;90859.81;5053914;28;20028;-67
2022/04/27 10:19:23;;;;;;;1.40;1.30;;;;;;;23.68;45.46;90848.19;5053385;28;20087;-65
2022/04/27 10:21:56;;;;;;;1.30;1.20;;;;;;;23.48;44.33;90840.41;5053667;28;20037;-65
2022/04/27 10:24:34;;;;;;;3.15;1.50;;;;;;;22.83;45.70;90841.56;5053634;28;20045;-65
2022/04/27 10:27:42;;;;;;;1.60;1.50;;;;;;;23.51;45.94;90849.72;5052479;28;20033;-67
2022/04/27 10:30:10;;;;;;;1.00;1.00;;;;;;;25.05;41.91;90829.00;5023668;28;20045;-67
2022/04/27 10:32:44;;;;;;;1.73;1.63;;;;;;;27.99;40.00;90839.47;5033723;28;20055;-65
2022/04/27 10:35:12;;;;;;;1.00;1.00;;;;;;;29.65;36.90;90833.72;5033658;28;20017;-66
2022/04/27 10:37:47;;;;;;;1.52;1.42;;;;;;;29.76;36.17;90826.78;5033640;28;20041;-66
2022/04/27 10:40:37;;;;;;;1.08;1.08;;;;;;;28.06;38.05;90842.06;5033547;28;20026;-67
2022/04/27 10:43:14;;;;;;;1.10;0.90;;;;;;;25.82;40.18;90840.44;5033475;28;20057;-65
2022/04/27 10:45:42;;;;;;;1.92;1.45;;;;;;;25.01;42.14;90833.69;5033458;28;20459;-66
2022/04/27 10:48:16;;;;;;;1.88;1.50;;;;;;;23.00;46.21;90842.75;5033593;28;20088;-66
2022/04/27 10:51:04;;;;;;;1.55;1.45;;;;;;;22.79;47.62;90838.03;5033390;28;20033;-66
2022/04/27 10:53:40;;;;;;;4.72;1.60;;;;;;;22.22;47.45;90834.41;5033019;28;20083;-66
2022/04/27 10:56:26;;;;;;;2.42;1.35;;;;;;;21.50;51.52;90834.03;5033204;28;20024;-66
2022/04/27 10:58:52;;;;;;;1.00;1.00;;;;;;;21.31;52.34;90838.94;5033347;28;20084;-66
2022/04/27 11:01:25;;;;;;;1.40;1.30;;;;;;;21.45;52.97;90833.59;5015220;28;20037;-66
2022/04/27 11:03:55;;;;;;;;;;;;;;;21.78;52.79;90843.50;5033371;28;20037;-66
2022/04/27 11:06:21;;;;;;;1.60;1.50;;;;;;;23.66;47.59;90847.78;5033034;28;19941;-66
2022/04/27 11:09:21;;;;;;;1.45;1.35;;;;;;;25.91;41.34;90850.88;5032652;28;20017;-66
2022/04/27 11:11:55;;;;;;;0.70;0.70;;;;;;;26.25;39.78;90846.22;5032788;28;20111;-66
2022/04/27 11:14:26;;;;;;;1.25;1.02;;;;;;;26.83;38.99;90832.69;5033080;28;20052;-67
2022/04/27 11:16:52;;;;;;;0.75;0.75;;;;;;;27.27;37.82;90841.81;5032727;28;20022;-66
2022/04/27 11:19:18;;;;;;;1.23;1.10;;;;;;;26.64;39.33;90836.03;5032747;28;20116;-66
2022/04/27 11:21:43;;;;;;;0.85;0.85;;;;;;;27.16;38.38;90825.59;5039106;28;20021;-66
2022/04/27 11:24:11;;;;;;;0.80;0.80;;;;;;;28.80;36.94;90822.69;5051921;28;20040;-66
2022/04/27 11:26:44;;;;;;;0.70;0.70;;;;;;;28.72;36.58;90824.00;5052702;28;20060;-67
2022/04/27 11:29:15;;;;;;;1.08;1.00;;;;;;;30.11;35.57;90822.38;5052280;28;20036;-66
2022/04/27 11:31:42;;;;;;;0.80;0.80;;;;;;;29.29;35.12;90822.78;5052050;28;20047;-67
2022/04/27 11:34:25;;;;;;;0.68;0.68;;;;;;;30.91;33.33;90813.53;5051665;28;20044;-66
2022/04/27 11:36:52;;;;;;;1.05;1.00;;;;;;;31.12;32.48;90821.16;5051305;28;20112;-67
2022/04/27 11:39:22;;;;;;;25.67;1.33;;;;;;;31.24;33.69;90822.38;5051337;28;20024;-66
2022/04/27 11:41:56;;;;;;;1.17;1.08;;;;;;;30.82;33.02;90822.41;5059402;28;20494;-66
2022/04/27 11:44:21;;;;;;;0.80;0.80;;;;;;;32.01;32.19;90823.09;5056599;28;20079;-66
2022/04/27 11:46:47;;;;;;;1.60;1.40;;;;;;;30.65;33.18;90816.25;5051816;28;20028;-66
2022/04/27 11:49:12;;;;;;;0.75;0.75;;;;;;;28.13;35.38;90814.59;5051817;28;20040;-67
2022/04/27 11:51:38;;;;;;;0.90;0.90;;;;;;;27.45;36.43;90804.03;5056083;28;20367;-66